createdAt,value
2023-06-10T00:00:43.717Z,38
2023-06-10T00:01:44.718Z,37
2023-06-10T00:02:45.822Z,37
2023-06-10T00:03:46.955Z,38
2023-06-10T00:04:47.664Z,38
2023-06-10T00:05:48.647Z,38
2023-06-10T00:06:49.809Z,39
2023-06-10T00:07:50.655Z,40
2023-06-10T00:08:51.650Z,39
2023-06-10T00:09:52.656Z,38
2023-06-10T00:10:53.652Z,38
2023-06-10T00:11:54.635Z,38
2023-06-10T00:12:55.628Z,38
2023-06-10T00:13:56.715Z,38
2023-06-10T00:14:57.680Z,38
2023-06-10T00:15:58.687Z,40
2023-06-10T00:16:59.656Z,39
2023-06-10T00:18:00.745Z,40
2023-06-10T00:19:01.654Z,40
2023-06-10T00:20:02.731Z,40
2023-06-10T00:21:03.718Z,40
2023-06-10T00:22:04.635Z,41
2023-06-10T00:23:05.661Z,42
2023-06-10T00:24:06.746Z,41
2023-06-10T00:25:07.944Z,41
2023-06-10T00:26:08.654Z,40
2023-06-10T00:27:09.724Z,40
2023-06-10T00:28:10.621Z,39
2023-06-10T00:29:11.654Z,39
2023-06-10T00:30:12.643Z,39
2023-06-10T00:31:13.682Z,40
2023-06-10T00:32:14.706Z,40
2023-06-10T00:33:15.712Z,41
2023-06-10T00:34:16.647Z,40
2023-06-10T00:35:17.646Z,40
2023-06-10T00:36:18.655Z,41
2023-06-10T00:37:19.669Z,41
2023-06-10T00:38:20.636Z,41
2023-06-10T00:39:21.643Z,41
2023-06-10T00:40:22.641Z,44
2023-06-10T00:41:23.851Z,42
2023-06-10T00:42:24.703Z,42
2023-06-10T00:43:25.634Z,42
2023-06-10T00:44:26.738Z,41
2023-06-10T00:45:27.669Z,40
2023-06-10T00:46:28.699Z,41
2023-06-10T00:47:29.698Z,41
2023-06-10T00:48:30.660Z,40
2023-06-10T00:49:31.759Z,41
2023-06-10T00:50:32.674Z,41
2023-06-10T00:51:33.655Z,41
2023-06-10T00:52:34.791Z,41
2023-06-10T00:53:35.657Z,41
2023-06-10T00:54:36.654Z,42
2023-06-10T00:55:37.656Z,41
2023-06-10T00:56:38.795Z,44
2023-06-10T00:57:39.733Z,42
2023-06-10T00:58:40.668Z,41
2023-06-10T00:59:41.681Z,42
2023-06-10T01:00:42.807Z,41
2023-06-10T01:01:43.743Z,41
2023-06-10T01:02:44.886Z,40
2023-06-10T01:03:45.699Z,40
2023-06-10T01:04:46.718Z,39
2023-06-10T01:05:47.653Z,39
2023-06-10T01:06:48.848Z,39
2023-06-10T01:07:49.718Z,38
2023-06-10T01:08:50.665Z,38
2023-06-10T01:09:51.748Z,39
2023-06-10T01:10:52.665Z,39
2023-06-10T01:11:53.707Z,39
2023-06-10T01:12:54.742Z,40
2023-06-10T01:13:55.688Z,40
2023-06-10T01:14:56.670Z,41
2023-06-10T01:15:57.688Z,41
2023-06-10T01:16:58.680Z,41
2023-06-10T01:17:59.781Z,41
2023-06-10T01:19:00.680Z,41
2023-06-10T01:20:01.723Z,40
2023-06-10T01:21:02.674Z,40
2023-06-10T01:22:03.763Z,40
2023-06-10T01:23:04.691Z,40
2023-06-10T01:24:05.713Z,40
2023-06-10T01:25:07.197Z,40
2023-06-10T01:26:07.724Z,40
2023-06-10T01:27:09.055Z,40
2023-06-10T01:28:09.678Z,41
2023-06-10T01:29:10.711Z,42
2023-06-10T01:30:11.686Z,41
2023-06-10T01:31:12.717Z,40
2023-06-10T01:32:13.714Z,41
2023-06-10T01:33:14.784Z,41
2023-06-10T01:34:15.719Z,41
2023-06-10T01:35:16.698Z,40
2023-06-10T01:36:17.668Z,39
2023-06-10T01:37:18.720Z,40
2023-06-10T01:38:19.681Z,40
2023-06-10T01:39:20.714Z,40
2023-06-10T01:40:21.680Z,40
2023-06-10T01:41:22.691Z,40
2023-06-10T01:42:23.764Z,39
2023-06-10T01:43:24.711Z,39
2023-06-10T01:44:25.709Z,39
2023-06-10T01:45:26.688Z,40
2023-06-10T01:46:27.752Z,38
2023-06-10T01:47:28.854Z,39
2023-06-10T01:48:29.707Z,39
2023-06-10T01:49:30.787Z,41
2023-06-10T01:50:31.698Z,42
2023-06-10T01:51:32.717Z,41
2023-06-10T01:52:33.770Z,42
2023-06-10T01:53:34.684Z,44
2023-06-10T01:54:35.708Z,42
2023-06-10T01:55:36.708Z,41
2023-06-10T01:56:37.672Z,41
2023-06-10T01:57:39.062Z,41
2023-06-10T01:58:39.698Z,40
2023-06-10T01:59:40.684Z,40
2023-06-10T02:00:41.716Z,40
2023-06-10T02:01:42.685Z,41
2023-06-10T02:02:43.860Z,40
2023-06-10T02:03:44.806Z,40
2023-06-10T02:04:45.692Z,40
2023-06-10T02:05:46.696Z,40
2023-06-10T02:06:47.737Z,39
2023-06-10T02:07:48.729Z,40
2023-06-10T02:08:59.594Z,41
2023-06-10T02:10:00.744Z,42
2023-06-10T02:11:01.762Z,42
2023-06-10T02:12:02.713Z,44
2023-06-10T02:13:03.807Z,42
2023-06-10T02:14:04.712Z,42
2023-06-10T02:15:05.748Z,42
2023-06-10T02:16:06.917Z,42
2023-06-10T02:17:07.768Z,41
2023-06-10T02:18:08.779Z,41
2023-06-10T02:19:09.739Z,41
2023-06-10T02:20:10.698Z,40
2023-06-10T02:21:11.760Z,41
2023-06-10T02:22:12.708Z,42
2023-06-10T02:23:13.712Z,42
2023-06-10T02:24:14.715Z,46
2023-06-10T02:25:15.733Z,49
2023-06-10T02:26:16.743Z,50
2023-06-10T02:27:17.722Z,50
2023-06-10T02:28:18.749Z,50
2023-06-10T02:29:19.723Z,52
2023-06-10T02:30:20.733Z,52
2023-06-10T02:31:22.447Z,52
2023-06-10T02:32:23.767Z,51
2023-06-10T02:33:24.706Z,50
2023-06-10T02:34:25.749Z,51
2023-06-10T02:35:26.728Z,53
2023-06-10T02:36:27.710Z,51
2023-06-10T02:37:28.749Z,-1
2023-06-10T02:38:29.719Z,50
2023-06-10T02:39:30.744Z,50
2023-06-10T02:40:31.781Z,49
2023-06-10T02:41:32.764Z,48
2023-06-10T02:42:33.838Z,48
2023-06-10T02:43:34.704Z,48
2023-06-10T02:44:35.713Z,47
2023-06-10T02:45:36.742Z,46
2023-06-10T02:46:37.750Z,46
2023-06-10T02:47:38.732Z,46
2023-06-10T02:48:39.821Z,46
2023-06-10T02:49:40.826Z,45
2023-06-10T02:50:41.766Z,45
2023-06-10T02:51:42.733Z,45
2023-06-10T02:52:43.797Z,45
2023-06-10T02:53:44.729Z,45
2023-06-10T02:54:45.840Z,46
2023-06-10T02:55:46.725Z,46
2023-06-10T02:56:47.753Z,46
2023-06-10T02:57:48.735Z,46
2023-06-10T02:58:49.748Z,46
2023-06-10T02:59:50.763Z,46
2023-06-10T03:00:51.774Z,46
2023-06-10T03:01:52.865Z,46
2023-06-10T03:02:53.829Z,46
2023-06-10T03:03:54.774Z,47
2023-06-10T03:04:55.827Z,46
2023-06-10T03:05:56.729Z,46
2023-06-10T03:06:57.837Z,46
2023-06-10T03:07:58.744Z,46
2023-06-10T03:08:59.792Z,47
2023-06-10T03:10:00.738Z,46
2023-06-10T03:11:01.748Z,46
2023-06-10T03:12:02.764Z,47
2023-06-10T03:13:03.808Z,48
2023-06-10T03:14:04.767Z,48
2023-06-10T03:15:05.727Z,50
2023-06-10T03:16:06.805Z,49
2023-06-10T03:17:07.735Z,50
2023-06-10T03:18:08.815Z,50
2023-06-10T03:19:09.802Z,48
2023-06-10T03:20:10.769Z,48
2023-06-10T03:21:11.736Z,47
2023-06-10T03:22:12.824Z,47
2023-06-10T03:23:13.798Z,47
2023-06-10T03:24:14.974Z,47
2023-06-10T03:25:15.755Z,47
2023-06-10T03:26:16.734Z,48
2023-06-10T03:27:17.864Z,47
2023-06-10T03:28:18.802Z,47
2023-06-10T03:29:19.768Z,47
2023-06-10T03:30:20.765Z,46
2023-06-10T03:31:21.797Z,47
2023-06-10T03:32:22.795Z,48
2023-06-10T03:33:23.842Z,48
2023-06-10T03:34:24.773Z,50
2023-06-10T03:35:25.800Z,51
2023-06-10T03:36:26.775Z,51
2023-06-10T03:37:27.768Z,52
2023-06-10T03:38:28.793Z,52
2023-06-10T03:39:29.770Z,52
2023-06-10T03:40:30.773Z,50
2023-06-10T03:41:31.770Z,50
2023-06-10T03:42:32.749Z,50
2023-06-10T03:43:33.757Z,50
2023-06-10T03:44:34.827Z,48
2023-06-10T03:45:35.922Z,48
2023-06-10T03:46:36.757Z,48
2023-06-10T03:47:37.786Z,49
2023-06-10T03:48:38.797Z,51
2023-06-10T03:49:39.859Z,50
2023-06-10T03:50:40.789Z,50
2023-06-10T03:51:41.761Z,50
2023-06-10T03:52:42.788Z,49
2023-06-10T03:53:43.793Z,48
2023-06-10T03:54:44.842Z,48
2023-06-10T03:55:45.800Z,47
2023-06-10T03:56:46.761Z,47
2023-06-10T03:57:47.802Z,49
2023-06-10T03:58:48.771Z,49
2023-06-10T03:59:49.826Z,50
2023-06-10T04:00:50.796Z,49
2023-06-10T04:01:51.804Z,48
2023-06-10T04:02:53.020Z,49
2023-06-10T04:03:53.766Z,50
2023-06-10T04:04:54.784Z,50
2023-06-10T04:05:55.999Z,50
2023-06-10T04:06:56.781Z,51
2023-06-10T04:07:57.774Z,51
2023-06-10T04:08:58.814Z,52
2023-06-10T04:09:59.802Z,50
2023-06-10T04:11:00.790Z,51
2023-06-10T04:12:01.816Z,50
2023-06-10T04:13:02.774Z,51
2023-06-10T04:14:03.792Z,51
2023-06-10T04:15:04.902Z,51
2023-06-10T04:16:05.797Z,50
2023-06-10T04:17:06.846Z,50
2023-06-10T04:18:07.974Z,52
2023-06-10T04:19:08.813Z,51
2023-06-10T04:20:09.822Z,51
2023-06-10T04:21:10.812Z,50
2023-06-10T04:22:11.813Z,50
2023-06-10T04:23:12.794Z,50
2023-06-10T04:24:13.799Z,50
2023-06-10T04:25:14.823Z,50
2023-06-10T04:26:15.779Z,51
2023-06-10T04:27:16.789Z,50
2023-06-10T04:28:17.833Z,50
2023-06-10T04:29:18.811Z,51
2023-06-10T04:30:19.785Z,51
2023-06-10T04:31:20.857Z,50
2023-06-10T04:32:21.811Z,51
2023-06-10T04:33:22.796Z,50
2023-06-10T04:34:23.881Z,51
2023-06-10T04:35:24.794Z,52
2023-06-10T04:36:25.855Z,51
2023-06-10T04:37:26.795Z,50
2023-06-10T04:38:27.806Z,51
2023-06-10T04:39:28.813Z,50
2023-06-10T04:40:29.779Z,50
2023-06-10T04:41:30.815Z,51
2023-06-10T04:42:31.798Z,50
2023-06-10T04:43:32.809Z,51
2023-06-10T04:44:33.815Z,52
2023-06-10T04:45:34.790Z,52
2023-06-10T04:46:35.820Z,50
2023-06-10T04:47:36.861Z,50
2023-06-10T04:48:37.787Z,50
2023-06-10T04:49:38.786Z,50
2023-06-10T04:50:39.803Z,51
2023-06-10T04:51:40.867Z,51
2023-06-10T04:52:41.834Z,50
2023-06-10T04:53:42.805Z,49
2023-06-10T04:54:43.851Z,49
2023-06-10T04:55:44.817Z,49
2023-06-10T04:56:45.850Z,49
2023-06-10T04:57:46.839Z,50
2023-06-10T04:58:47.837Z,49
2023-06-10T04:59:48.881Z,49
2023-06-10T05:00:49.812Z,49
2023-06-10T05:01:50.879Z,49
2023-06-10T05:02:51.864Z,48
2023-06-10T05:03:52.851Z,48
2023-06-10T05:04:53.806Z,48
2023-06-10T05:05:54.799Z,48
2023-06-10T05:06:55.821Z,49
2023-06-10T05:07:56.809Z,49
2023-06-10T05:08:57.823Z,50
2023-06-10T05:09:58.810Z,51
2023-06-10T05:10:59.814Z,51
2023-06-10T05:12:00.813Z,50
2023-06-10T05:13:01.881Z,50
2023-06-10T05:14:02.800Z,50
2023-06-10T05:15:03.882Z,50
2023-06-10T05:16:04.896Z,49
2023-06-10T05:17:05.825Z,49
2023-06-10T05:18:06.876Z,48
2023-06-10T05:19:08.666Z,48
2023-06-10T05:20:08.839Z,48
2023-06-10T05:21:09.868Z,48
2023-06-10T05:22:10.838Z,48
2023-06-10T05:23:11.802Z,48
2023-06-10T05:24:12.855Z,48
2023-06-10T05:25:13.846Z,48
2023-06-10T05:26:14.808Z,48
2023-06-10T05:27:15.818Z,49
2023-06-10T05:28:16.833Z,49
2023-06-10T05:29:17.857Z,50
2023-06-10T05:30:18.850Z,51
2023-06-10T05:31:19.849Z,50
2023-06-10T05:32:20.842Z,50
2023-06-10T05:33:21.885Z,50
2023-06-10T05:34:22.849Z,51
2023-06-10T05:35:23.853Z,51
2023-06-10T05:36:24.832Z,51
2023-06-10T05:37:25.843Z,50
2023-06-10T05:38:26.838Z,50
2023-06-10T05:39:27.826Z,50
2023-06-10T05:40:28.969Z,51
2023-06-10T05:41:29.834Z,51
2023-06-10T05:42:30.852Z,51
2023-06-10T05:43:31.831Z,52
2023-06-10T05:44:32.878Z,52
2023-06-10T05:45:33.841Z,52
2023-06-10T05:46:34.919Z,52
2023-06-10T05:47:35.926Z,52
2023-06-10T05:48:36.855Z,55
2023-06-10T05:49:37.839Z,56
2023-06-10T05:50:38.891Z,53
2023-06-10T05:51:39.878Z,53
2023-06-10T05:52:40.862Z,53
2023-06-10T05:53:41.837Z,52
2023-06-10T05:54:42.833Z,52
2023-06-10T05:55:43.958Z,52
2023-06-10T05:56:44.833Z,52
2023-06-10T05:57:45.899Z,51
2023-06-10T05:58:46.889Z,51
2023-06-10T05:59:47.845Z,51
2023-06-10T06:00:48.976Z,52
2023-06-10T06:01:49.839Z,52
2023-06-10T06:02:50.980Z,51
2023-06-10T06:03:51.860Z,50
2023-06-10T06:04:52.879Z,50
2023-06-10T06:05:53.852Z,49
2023-06-10T06:06:54.853Z,49
2023-06-10T06:07:55.875Z,50
2023-06-10T06:08:56.840Z,49
2023-06-10T06:09:57.836Z,50
2023-06-10T06:10:58.861Z,50
2023-06-10T06:11:59.850Z,50
2023-06-10T06:13:00.849Z,49
2023-06-10T06:14:01.908Z,50
2023-06-10T06:15:02.869Z,50
2023-06-10T06:16:04.033Z,50
2023-06-10T06:17:04.850Z,50
2023-06-10T06:18:05.907Z,49
2023-06-10T06:19:06.852Z,49
2023-06-10T06:20:08.018Z,49
2023-06-10T06:21:08.871Z,50
2023-06-10T06:22:09.858Z,50
2023-06-10T06:23:10.895Z,50
2023-06-10T06:24:11.904Z,50
2023-06-10T06:25:13.312Z,52
2023-06-10T06:26:13.858Z,51
2023-06-10T06:27:14.837Z,51
2023-06-10T06:28:15.862Z,50
2023-06-10T06:29:16.852Z,49
2023-06-10T06:30:17.860Z,49
2023-06-10T06:31:18.916Z,50
2023-06-10T06:32:19.854Z,50
2023-06-10T06:33:20.906Z,49
2023-06-10T06:34:21.881Z,49
2023-06-10T06:35:22.859Z,49
2023-06-10T06:36:23.902Z,49
2023-06-10T06:37:24.898Z,48
2023-06-10T06:38:25.948Z,48
2023-06-10T06:39:26.888Z,48
2023-06-10T06:40:27.873Z,48
2023-06-10T06:41:28.854Z,48
2023-06-10T06:42:29.872Z,47
2023-06-10T06:43:30.899Z,48
2023-06-10T06:44:31.863Z,48
2023-06-10T06:45:32.886Z,47
2023-06-10T06:46:33.858Z,48
2023-06-10T06:47:34.950Z,46
2023-06-10T06:48:35.920Z,48
2023-06-10T06:49:36.887Z,48
2023-06-10T06:50:37.896Z,47
2023-06-10T06:51:38.860Z,46
2023-06-10T06:52:39.882Z,47
2023-06-10T06:53:40.915Z,46
2023-06-10T06:54:41.896Z,47
2023-06-10T06:55:42.877Z,46
2023-06-10T06:56:44.020Z,46
2023-06-10T06:57:44.870Z,45
2023-06-10T06:58:46.017Z,45
2023-06-10T06:59:46.881Z,45
2023-06-10T07:00:47.988Z,42
2023-06-10T07:01:48.904Z,44
2023-06-10T07:02:49.883Z,44
2023-06-10T07:03:50.904Z,44
2023-06-10T07:04:51.944Z,44
2023-06-10T07:05:52.864Z,45
2023-06-10T07:06:53.898Z,46
2023-06-10T07:07:54.889Z,44
2023-06-10T07:08:55.921Z,45
2023-06-10T07:09:56.924Z,44
2023-06-10T07:10:57.884Z,42
2023-06-10T07:11:58.878Z,44
2023-06-10T07:12:59.914Z,44
2023-06-10T07:14:00.882Z,42
2023-06-10T07:15:01.980Z,42
2023-06-10T07:16:02.933Z,42
2023-06-10T07:17:04.373Z,41
2023-06-10T07:18:05.911Z,42
2023-06-10T07:19:06.915Z,42
2023-06-10T07:20:07.908Z,45
2023-06-10T07:21:09.012Z,44
2023-06-10T07:22:09.925Z,42
2023-06-10T07:23:10.888Z,42
2023-06-10T07:24:11.958Z,42
2023-06-10T07:25:13.027Z,42
2023-06-10T07:26:13.929Z,42
2023-06-10T07:27:14.954Z,41
2023-06-10T07:28:15.903Z,41
2023-06-10T07:29:16.886Z,41
2023-06-10T07:30:17.911Z,42
2023-06-10T07:31:18.953Z,41
2023-06-10T07:32:19.899Z,42
2023-06-10T07:33:21.016Z,44
2023-06-10T07:34:21.896Z,44
2023-06-10T07:35:22.892Z,42
2023-06-10T07:36:23.959Z,44
2023-06-10T07:37:24.916Z,44
2023-06-10T07:38:25.919Z,44
2023-06-10T07:39:26.957Z,44
2023-06-10T07:40:28.082Z,45
2023-06-10T07:41:29.004Z,44
2023-06-10T07:42:29.907Z,45
2023-06-10T07:43:30.898Z,44
2023-06-10T07:44:31.944Z,44
2023-06-10T07:45:32.972Z,42
2023-06-10T07:46:33.926Z,42
2023-06-10T07:47:34.919Z,44
2023-06-10T07:48:35.944Z,45
2023-06-10T07:49:36.996Z,48
2023-06-10T07:50:37.916Z,45
2023-06-10T07:51:38.909Z,44
2023-06-10T07:52:39.921Z,44
2023-06-10T07:53:40.900Z,44
2023-06-10T07:54:41.943Z,44
2023-06-10T07:55:42.918Z,45
2023-06-10T07:56:43.960Z,42
2023-06-10T07:57:44.943Z,41
2023-06-10T07:58:46.050Z,44
2023-06-10T07:59:46.934Z,42
2023-06-10T08:00:47.914Z,42
2023-06-10T08:01:48.909Z,42
2023-06-10T08:02:50.044Z,41
2023-06-10T08:03:51.202Z,42
2023-06-10T08:04:51.933Z,41
2023-06-10T08:05:52.943Z,41
2023-06-10T08:06:53.911Z,41
2023-06-10T08:07:54.971Z,41
2023-06-10T08:08:55.961Z,41
2023-06-10T08:09:56.956Z,40
2023-06-10T08:10:57.947Z,40
2023-06-10T08:11:59.054Z,41
2023-06-10T08:12:59.941Z,40
2023-06-10T08:14:00.932Z,41
2023-06-10T08:15:01.995Z,41
2023-06-10T08:16:02.976Z,41
2023-06-10T08:17:04.092Z,42
2023-06-10T08:18:04.971Z,41
2023-06-10T08:19:05.937Z,42
2023-06-10T08:20:06.983Z,40
2023-06-10T08:21:07.940Z,41
2023-06-10T08:22:08.939Z,40
2023-06-10T08:23:09.921Z,41
2023-06-10T08:24:10.972Z,41
2023-06-10T08:25:12.099Z,40
2023-06-10T08:26:12.930Z,40
2023-06-10T08:27:13.941Z,39
2023-06-10T08:28:14.920Z,40
2023-06-10T08:29:15.937Z,40
2023-06-10T08:30:16.975Z,40
2023-06-10T08:31:17.960Z,40
2023-06-10T08:32:19.045Z,40
2023-06-10T08:33:19.925Z,40
2023-06-10T08:34:20.949Z,39
2023-06-10T08:35:21.978Z,39
2023-06-10T08:36:23.018Z,39
2023-06-10T08:37:24.066Z,39
2023-06-10T08:38:24.931Z,39
2023-06-10T08:39:25.933Z,39
2023-06-10T08:40:27.009Z,39
2023-06-10T08:41:27.944Z,39
2023-06-10T08:42:28.956Z,39
2023-06-10T08:43:29.932Z,38
2023-06-10T08:44:30.972Z,39
2023-06-10T08:45:31.942Z,38
2023-06-10T08:46:32.939Z,37
2023-06-10T08:47:33.954Z,37
2023-06-10T08:48:34.966Z,38
2023-06-10T08:49:36.026Z,37
2023-06-10T08:50:36.936Z,37
2023-06-10T08:51:37.956Z,38
2023-06-10T08:52:38.969Z,38
2023-06-10T08:53:39.946Z,38
2023-06-10T08:54:40.969Z,39
2023-06-10T08:55:41.972Z,39
2023-06-10T08:56:42.964Z,38
2023-06-10T08:57:44.018Z,37
2023-06-10T08:58:44.968Z,37
2023-06-10T08:59:46.092Z,37
2023-06-10T09:00:46.975Z,36
2023-06-10T09:01:48.048Z,36
2023-06-10T09:02:49.053Z,35
2023-06-10T09:03:50.000Z,37
2023-06-10T09:04:50.955Z,36
2023-06-10T09:05:51.986Z,36
2023-06-10T09:06:53.005Z,36
2023-06-10T09:07:53.974Z,36
2023-06-10T09:08:55.045Z,38
2023-06-10T09:09:55.999Z,37
2023-06-10T09:10:56.984Z,35
2023-06-10T09:11:57.975Z,37
2023-06-10T09:12:58.962Z,36
2023-06-10T09:13:59.991Z,37
2023-06-10T09:15:03.262Z,36
2023-06-10T09:16:02.041Z,35
2023-06-10T09:17:02.970Z,35
2023-06-10T09:18:04.078Z,35
2023-06-10T09:19:04.986Z,35
2023-06-10T09:20:07.499Z,35
2023-06-10T09:21:06.964Z,35
2023-06-10T09:22:08.019Z,36
2023-06-10T09:23:08.990Z,37
2023-06-10T09:24:10.002Z,37
2023-06-10T09:25:10.990Z,38
2023-06-10T09:26:12.101Z,37
2023-06-10T09:27:12.995Z,37
2023-06-10T09:28:13.968Z,37
2023-06-10T09:29:14.970Z,37
2023-06-10T09:30:16.052Z,39
2023-06-10T09:31:17.003Z,40
2023-06-10T09:32:18.032Z,40
2023-06-10T09:33:18.979Z,40
2023-06-10T09:34:19.989Z,40
2023-06-10T09:35:21.041Z,40
2023-06-10T09:36:22.127Z,40
2023-06-10T09:37:23.033Z,41
2023-06-10T09:38:24.031Z,40
2023-06-10T09:39:24.977Z,40
2023-06-10T09:40:25.997Z,40
2023-06-10T09:41:27.052Z,40
2023-06-10T09:42:28.149Z,40
2023-06-10T09:43:28.997Z,41
2023-06-10T09:44:29.997Z,44
2023-06-10T09:45:31.011Z,41
2023-06-10T09:46:32.128Z,41
2023-06-10T09:47:33.043Z,42
2023-06-10T09:48:33.990Z,42
2023-06-10T09:49:34.983Z,41
2023-06-10T09:50:36.160Z,42
2023-06-10T09:51:37.037Z,41
2023-06-10T09:52:38.046Z,44
2023-06-10T09:53:38.984Z,46
2023-06-10T09:54:39.985Z,45
2023-06-10T09:55:40.971Z,45
2023-06-10T09:56:42.063Z,46
2023-06-10T09:57:43.013Z,46
2023-06-10T09:58:44.072Z,46
2023-06-10T09:59:44.994Z,45
2023-06-10T10:00:46.257Z,45
2023-06-10T10:01:47.136Z,45
2023-06-10T10:02:48.188Z,46
2023-06-10T10:03:48.990Z,46
2023-06-10T10:04:50.120Z,45
2023-06-10T10:05:51.095Z,45
2023-06-10T10:06:52.047Z,46
2023-06-10T10:07:53.029Z,44
2023-06-10T10:08:54.035Z,42
2023-06-10T10:09:55.007Z,44
2023-06-10T10:10:56.016Z,44
2023-06-10T10:11:57.161Z,44
2023-06-10T10:12:58.053Z,44
2023-06-10T10:13:58.989Z,44
2023-06-10T10:15:00.043Z,45
2023-06-10T10:16:01.007Z,45
2023-06-10T10:17:02.117Z,44
2023-06-10T10:18:03.153Z,45
2023-06-10T10:19:04.070Z,45
2023-06-10T10:20:05.039Z,44
2023-06-10T10:21:06.028Z,44
2023-06-10T10:22:07.077Z,44
2023-06-10T10:23:08.025Z,42
2023-06-10T10:24:09.193Z,42
2023-06-10T10:25:10.247Z,40
2023-06-10T10:26:11.102Z,42
2023-06-10T10:27:12.092Z,41
2023-06-10T10:28:13.044Z,42
2023-06-10T10:29:14.050Z,42
2023-06-10T10:30:15.055Z,41
2023-06-10T10:31:16.069Z,40
2023-06-10T10:32:17.193Z,41
2023-06-10T10:33:18.120Z,44
2023-06-10T10:34:19.056Z,42
2023-06-10T10:35:20.023Z,42
2023-06-10T10:36:21.063Z,41
2023-06-10T10:37:22.095Z,42
2023-06-10T10:38:23.021Z,42
2023-06-10T10:39:24.001Z,41
2023-06-10T10:40:25.030Z,41
2023-06-10T10:41:26.026Z,42
2023-06-10T10:42:27.131Z,42
2023-06-10T10:43:28.033Z,41
2023-06-10T10:44:29.111Z,41
2023-06-10T10:45:30.075Z,41
2023-06-10T10:46:31.071Z,42
2023-06-10T10:47:32.211Z,42
2023-06-10T10:48:33.017Z,41
2023-06-10T10:49:34.136Z,41
2023-06-10T10:50:35.034Z,40
2023-06-10T10:51:36.054Z,40
2023-06-10T10:52:37.021Z,40
2023-06-10T10:53:38.064Z,40
2023-06-10T10:54:39.010Z,42
2023-06-10T10:55:40.028Z,40
2023-06-10T10:56:41.217Z,40
2023-06-10T10:57:42.098Z,41
2023-06-10T10:58:43.127Z,41
2023-06-10T10:59:44.044Z,41
2023-06-10T11:00:45.174Z,40
2023-06-10T11:01:46.304Z,40
2023-06-10T11:02:47.954Z,41
2023-06-10T11:03:48.460Z,40
2023-06-10T11:04:49.099Z,40
2023-06-10T11:05:50.598Z,40
2023-06-10T11:06:51.103Z,39
2023-06-10T11:07:52.076Z,39
2023-06-10T11:08:53.079Z,40
2023-06-10T11:09:54.045Z,39
2023-06-10T11:10:55.060Z,39
2023-06-10T11:11:56.052Z,40
2023-06-10T11:12:57.089Z,39
2023-06-10T11:13:58.059Z,40
2023-06-10T11:14:59.063Z,39
2023-06-10T11:16:00.235Z,39
2023-06-10T11:17:01.172Z,37
2023-06-10T11:18:02.214Z,37
2023-06-10T11:19:03.048Z,36
2023-06-10T11:20:04.095Z,37
2023-06-10T11:21:05.299Z,36
2023-06-10T11:22:06.056Z,36
2023-06-10T11:23:07.118Z,37
2023-06-10T11:24:08.197Z,37
2023-06-10T11:25:09.309Z,37
2023-06-10T11:26:10.185Z,36
2023-06-10T11:27:11.070Z,36
2023-06-10T11:28:12.092Z,36
2023-06-10T11:29:13.103Z,36
2023-06-10T11:30:14.118Z,38
2023-06-10T11:31:15.060Z,38
2023-06-10T11:32:16.177Z,37
2023-06-10T11:33:17.279Z,38
2023-06-10T11:34:18.125Z,38
2023-06-10T11:35:19.147Z,39
2023-06-10T11:36:20.062Z,38
2023-06-10T11:37:21.072Z,40
2023-06-10T11:38:22.070Z,39
2023-06-10T11:39:23.053Z,38
2023-06-10T11:40:24.059Z,39
2023-06-10T11:41:25.043Z,38
2023-06-10T11:42:26.066Z,39
2023-06-10T11:43:27.241Z,39
2023-06-10T11:44:28.060Z,40
2023-06-10T11:45:29.070Z,40
2023-06-10T11:46:30.105Z,40
2023-06-10T11:47:31.086Z,39
2023-06-10T11:48:32.084Z,39
2023-06-10T11:49:33.070Z,39
2023-06-10T11:50:34.055Z,39
2023-06-10T11:51:35.150Z,39
2023-06-10T11:52:36.078Z,38
2023-06-10T11:53:37.086Z,39
2023-06-10T11:54:38.081Z,38
2023-06-10T11:55:39.065Z,38
2023-06-10T11:56:40.195Z,39
2023-06-10T11:57:41.063Z,39
2023-06-10T11:58:42.117Z,38
2023-06-10T11:59:43.090Z,38
2023-06-10T12:00:44.108Z,39
2023-06-10T12:01:45.099Z,38
2023-06-10T12:02:46.457Z,38
2023-06-10T12:03:47.136Z,38
2023-06-10T12:04:48.072Z,38
2023-06-10T12:05:49.138Z,38
2023-06-10T12:06:50.187Z,37
2023-06-10T12:07:51.077Z,37
2023-06-10T12:08:52.100Z,36
2023-06-10T12:09:53.093Z,37
2023-06-10T12:10:54.098Z,38
2023-06-10T12:11:55.142Z,39
2023-06-10T12:12:56.071Z,38
2023-06-10T12:13:57.118Z,37
2023-06-10T12:14:58.478Z,38
2023-06-10T12:15:59.159Z,39
2023-06-10T12:17:00.134Z,37
2023-06-10T12:18:01.198Z,39
2023-06-10T12:19:02.096Z,38
2023-06-10T12:20:03.196Z,39
2023-06-10T12:21:04.090Z,-1
2023-06-10T12:22:05.115Z,38
2023-06-10T12:23:06.067Z,39
2023-06-10T12:24:07.244Z,39
2023-06-10T12:25:08.488Z,38
2023-06-10T12:26:09.165Z,39
2023-06-10T12:27:10.098Z,39
2023-06-10T12:28:11.106Z,39
2023-06-10T12:29:12.129Z,38
2023-06-10T12:30:13.098Z,37
2023-06-10T12:31:14.103Z,37
2023-06-10T12:32:15.193Z,37
2023-06-10T12:33:16.156Z,39
2023-06-10T12:34:17.096Z,38
2023-06-10T12:35:18.168Z,38
2023-06-10T12:36:19.203Z,38
2023-06-10T12:37:20.084Z,37
2023-06-10T12:38:21.121Z,38
2023-06-10T12:39:22.102Z,39
2023-06-10T12:40:23.109Z,38
2023-06-10T12:41:24.177Z,39
2023-06-10T12:42:25.085Z,40
2023-06-10T12:43:26.105Z,38
2023-06-10T12:44:27.126Z,38
2023-06-10T12:45:28.096Z,36
2023-06-10T12:46:29.145Z,38
2023-06-10T12:47:30.150Z,37
2023-06-10T12:48:31.342Z,37
2023-06-10T12:49:32.107Z,37
2023-06-10T12:50:33.108Z,37
2023-06-10T12:51:34.146Z,38
2023-06-10T12:52:35.138Z,38
2023-06-10T12:53:36.569Z,40
2023-06-10T12:54:37.147Z,38
2023-06-10T12:55:38.119Z,36
2023-06-10T12:56:39.105Z,37
2023-06-10T12:57:40.135Z,37
2023-06-10T12:58:41.110Z,37
2023-06-10T12:59:42.153Z,37
2023-06-10T13:00:43.115Z,37
2023-06-10T13:01:44.137Z,36
2023-06-10T13:02:45.237Z,35
2023-06-10T13:03:46.422Z,35
2023-06-10T13:04:47.233Z,34
2023-06-10T13:05:48.119Z,34
2023-06-10T13:06:49.157Z,34
2023-06-10T13:07:50.124Z,36
2023-06-10T13:08:51.109Z,34
2023-06-10T13:09:52.114Z,34
2023-06-10T13:10:53.139Z,36
2023-06-10T13:11:54.207Z,37
2023-06-10T13:12:55.138Z,36
2023-06-10T13:13:56.130Z,38
2023-06-10T13:14:57.174Z,38
2023-06-10T13:15:58.140Z,37
2023-06-10T13:16:59.178Z,37
2023-06-10T13:18:00.231Z,38
2023-06-10T13:19:01.140Z,38
2023-06-10T13:20:02.183Z,37
2023-06-10T13:21:03.124Z,36
2023-06-10T13:22:04.154Z,37
2023-06-10T13:23:05.162Z,36
2023-06-10T13:24:06.183Z,38
2023-06-10T13:25:07.278Z,38
2023-06-10T13:26:08.143Z,39
2023-06-10T13:27:09.156Z,37
2023-06-10T13:28:10.147Z,37
2023-06-10T13:29:11.139Z,36
2023-06-10T13:30:12.475Z,37
2023-06-10T13:31:13.149Z,38
2023-06-10T13:32:14.176Z,37
2023-06-10T13:33:15.202Z,38
2023-06-10T13:34:16.164Z,37
2023-06-10T13:35:17.191Z,38
2023-06-10T13:36:18.176Z,37
2023-06-10T13:37:19.158Z,37
2023-06-10T13:38:20.138Z,37
2023-06-10T13:39:21.156Z,37
2023-06-10T13:40:22.147Z,39
2023-06-10T13:41:23.146Z,39
2023-06-10T13:42:24.151Z,38
2023-06-10T13:43:25.137Z,38
2023-06-10T13:44:26.187Z,38
2023-06-10T13:45:32.188Z,37
2023-06-10T13:46:33.256Z,37
2023-06-10T13:47:34.258Z,38
2023-06-10T13:48:35.134Z,37
2023-06-10T13:49:36.153Z,36
2023-06-10T13:50:37.162Z,37
2023-06-10T13:51:38.165Z,37
2023-06-10T13:52:39.130Z,37
2023-06-10T13:53:40.146Z,36
2023-06-10T13:54:41.151Z,38
2023-06-10T13:55:42.155Z,38
2023-06-10T13:56:43.146Z,38
2023-06-10T13:57:44.173Z,37
2023-06-10T13:58:45.156Z,37
2023-06-10T13:59:46.490Z,37
2023-06-10T14:00:47.172Z,39
2023-06-10T14:01:48.158Z,37
2023-06-10T14:02:49.356Z,38
2023-06-10T14:03:50.265Z,39
2023-06-10T14:04:51.168Z,39
2023-06-10T14:05:52.157Z,38
2023-06-10T14:06:53.152Z,38
2023-06-10T14:07:54.173Z,37
2023-06-10T14:08:55.167Z,37
2023-06-10T14:09:56.179Z,37
2023-06-10T14:10:57.158Z,37
2023-06-10T14:11:58.169Z,38
2023-06-10T14:12:59.185Z,38
2023-06-10T14:14:00.265Z,38
2023-06-10T14:15:01.212Z,35
2023-06-10T14:16:02.276Z,35
2023-06-10T14:17:03.193Z,37
2023-06-10T14:18:04.254Z,35
2023-06-10T14:19:05.186Z,36
2023-06-10T14:20:06.192Z,36
2023-06-10T14:21:07.170Z,36
2023-06-10T14:22:08.472Z,36
2023-06-10T14:23:09.219Z,36
2023-06-10T14:24:10.256Z,36
2023-06-10T14:25:11.325Z,35
2023-06-10T14:26:12.158Z,35
2023-06-10T14:27:13.160Z,34
2023-06-10T14:28:14.172Z,36
2023-06-10T14:29:15.222Z,36
2023-06-10T14:30:16.183Z,36